sensor_id;sensor_type;location;lat;lon;timestamp;pressure;altitude;pressure_sealevel;temperature;humidity
80699;BME280;70062;51.658;5.658;2024-03-08T00:02:25;101689.94;;;20.76;36.67
80699;BME280;70062;51.658;5.658;2024-03-08T00:04:51;101677.55;;;20.68;36.59
80699;BME280;70062;51.658;5.658;2024-03-08T00:07:17;101680.62;;;20.57;36.63
80699;BME280;70062;51.658;5.658;2024-03-08T00:09:43;101679.08;;;20.42;36.92
80699;BME280;70062;51.658;5.658;2024-03-08T00:12:09;101679.60;;;20.19;37.05
80699;BME280;70062;51.658;5.658;2024-03-08T00:14:35;101683.16;;;20.01;37.53
80699;BME280;70062;51.658;5.658;2024-03-08T00:17:03;101675.71;;;20.10;37.78
80699;BME280;70062;51.658;5.658;2024-03-08T00:19:29;101679.47;;;20.36;37.65
80699;BME280;70062;51.658;5.658;2024-03-08T00:21:55;101672.58;;;20.64;37.29
80699;BME280;70062;51.658;5.658;2024-03-08T00:24:22;101671.77;;;21.09;36.81
80699;BME280;70062;51.658;5.658;2024-03-08T00:26:50;101667.73;;;21.65;36.21
80699;BME280;70062;51.658;5.658;2024-03-08T00:29:16;101665.33;;;22.10;35.36
80699;BME280;70062;51.658;5.658;2024-03-08T00:31:41;101666.83;;;22.42;34.74
80699;BME280;70062;51.658;5.658;2024-03-08T00:34:07;101661.48;;;22.58;34.32
80699;BME280;70062;51.658;5.658;2024-03-08T00:36:37;101662.64;;;22.66;34.12
80699;BME280;70062;51.658;5.658;2024-03-08T00:39:03;101658.96;;;22.65;33.74
80699;BME280;70062;51.658;5.658;2024-03-08T00:41:32;101658.33;;;22.57;33.61
80699;BME280;70062;51.658;5.658;2024-03-08T00:43:58;101656.92;;;22.46;33.56
80699;BME280;70062;51.658;5.658;2024-03-08T00:46:24;101658.28;;;22.30;33.85
80699;BME280;70062;51.658;5.658;2024-03-08T00:48:50;101653.99;;;22.12;33.86
80699;BME280;70062;51.658;5.658;2024-03-08T00:51:16;101650.36;;;21.93;34.01
80699;BME280;70062;51.658;5.658;2024-03-08T00:53:42;101649.00;;;21.73;34.29
80699;BME280;70062;51.658;5.658;2024-03-08T00:56:08;101644.62;;;21.51;34.63
80699;BME280;70062;51.658;5.658;2024-03-08T00:58:37;101638.09;;;21.28;35.00
80699;BME280;70062;51.658;5.658;2024-03-08T01:01:03;101632.96;;;21.06;35.04
80699;BME280;70062;51.658;5.658;2024-03-08T01:03:31;101630.29;;;20.85;35.50
80699;BME280;70062;51.658;5.658;2024-03-08T01:05:57;101631.75;;;20.64;35.81
80699;BME280;70062;51.658;5.658;2024-03-08T01:08:27;101627.64;;;20.42;35.99
80699;BME280;70062;51.658;5.658;2024-03-08T01:10:53;101628.39;;;20.22;36.49
80699;BME280;70062;51.658;5.658;2024-03-08T01:13:20;101624.56;;;19.99;36.61
80699;BME280;70062;51.658;5.658;2024-03-08T01:15:47;101617.33;;;19.73;37.16
80699;BME280;70062;51.658;5.658;2024-03-08T01:18:13;101616.20;;;19.62;37.66
80699;BME280;70062;51.658;5.658;2024-03-08T01:20:38;101609.61;;;19.85;37.92
80699;BME280;70062;51.658;5.658;2024-03-08T01:23:06;101609.63;;;20.40;37.57
80699;BME280;70062;51.658;5.658;2024-03-08T01:25:36;101601.38;;;21.07;36.71
80699;BME280;70062;51.658;5.658;2024-03-08T01:28:01;101604.84;;;21.65;35.96
80699;BME280;70062;51.658;5.658;2024-03-08T01:30:27;101602.30;;;22.04;35.11
80699;BME280;70062;51.658;5.658;2024-03-08T01:32:53;101595.63;;;22.27;34.49
80699;BME280;70062;51.658;5.658;2024-03-08T01:35:19;101594.58;;;22.42;34.14
80699;BME280;70062;51.658;5.658;2024-03-08T01:37:47;101593.39;;;22.45;33.87
80699;BME280;70062;51.658;5.658;2024-03-08T01:40:15;101595.27;;;22.40;33.83
80699;BME280;70062;51.658;5.658;2024-03-08T01:42:42;101600.38;;;22.30;33.59
80699;BME280;70062;51.658;5.658;2024-03-08T01:45:08;101597.40;;;22.16;33.80
80699;BME280;70062;51.658;5.658;2024-03-08T01:47:34;101593.80;;;21.98;33.81
80699;BME280;70062;51.658;5.658;2024-03-08T01:50:01;101591.25;;;21.79;34.22
80699;BME280;70062;51.658;5.658;2024-03-08T01:52:32;101589.67;;;21.45;34.47
80699;BME280;70062;51.658;5.658;2024-03-08T01:55:00;101587.10;;;21.18;34.90
80699;BME280;70062;51.658;5.658;2024-03-08T01:57:28;101584.16;;;21.20;35.03
80699;BME280;70062;51.658;5.658;2024-03-08T01:59:55;101581.69;;;21.37;35.04
80699;BME280;70062;51.658;5.658;2024-03-08T02:02:22;101580.11;;;21.48;35.00
80699;BME280;70062;51.658;5.658;2024-03-08T02:04:48;101575.64;;;21.53;34.83
80699;BME280;70062;51.658;5.658;2024-03-08T02:07:14;101574.73;;;21.51;34.62
80699;BME280;70062;51.658;5.658;2024-03-08T02:09:40;101567.77;;;21.41;34.62
80699;BME280;70062;51.658;5.658;2024-03-08T02:12:06;101570.55;;;21.29;34.94
80699;BME280;70062;51.658;5.658;2024-03-08T02:14:33;101565.52;;;21.13;34.93
80699;BME280;70062;51.658;5.658;2024-03-08T02:17:02;101567.21;;;20.90;35.24
80699;BME280;70062;51.658;5.658;2024-03-08T02:19:28;101558.36;;;20.75;35.58
80699;BME280;70062;51.658;5.658;2024-03-08T02:21:55;101558.38;;;21.04;35.86
80699;BME280;70062;51.658;5.658;2024-03-08T02:24:21;101558.95;;;21.47;35.36
80699;BME280;70062;51.658;5.658;2024-03-08T02:26:49;101556.15;;;21.81;34.87
80699;BME280;70062;51.658;5.658;2024-03-08T02:29:14;101554.20;;;22.03;34.34
80699;BME280;70062;51.658;5.658;2024-03-08T02:31:40;101546.83;;;22.14;34.01
80699;BME280;70062;51.658;5.658;2024-03-08T02:34:06;101541.42;;;22.14;33.90
80699;BME280;70062;51.658;5.658;2024-03-08T02:36:32;101538.19;;;22.07;33.86
80699;BME280;70062;51.658;5.658;2024-03-08T02:39:02;101536.75;;;21.93;33.92
80699;BME280;70062;51.658;5.658;2024-03-08T02:41:28;101535.26;;;21.75;33.75
80699;BME280;70062;51.658;5.658;2024-03-08T02:43:53;101534.96;;;21.43;34.25
80699;BME280;70062;51.658;5.658;2024-03-08T02:46:20;101531.66;;;21.33;34.57
80699;BME280;70062;51.658;5.658;2024-03-08T02:48:46;101529.81;;;21.49;34.69
80699;BME280;70062;51.658;5.658;2024-03-08T02:51:12;101528.64;;;21.64;34.61
80699;BME280;70062;51.658;5.658;2024-03-08T02:53:39;101528.23;;;21.71;34.29
80699;BME280;70062;51.658;5.658;2024-03-08T02:56:04;101522.98;;;21.72;34.29
80699;BME280;70062;51.658;5.658;2024-03-08T02:58:34;101524.30;;;21.65;34.12
80699;BME280;70062;51.658;5.658;2024-03-08T03:01:00;101521.68;;;21.54;34.27
80699;BME280;70062;51.658;5.658;2024-03-08T03:03:26;101520.76;;;21.39;34.13
80699;BME280;70062;51.658;5.658;2024-03-08T03:05:52;101517.98;;;21.20;34.44
80699;BME280;70062;51.658;5.658;2024-03-08T03:08:21;101510.50;;;20.91;34.73
80699;BME280;70062;51.658;5.658;2024-03-08T03:10:47;101505.73;;;20.78;35.27
80699;BME280;70062;51.658;5.658;2024-03-08T03:13:13;101501.79;;;20.92;35.16
80699;BME280;70062;51.658;5.658;2024-03-08T03:15:39;101503.91;;;21.15;35.11
80699;BME280;70062;51.658;5.658;2024-03-08T03:18:07;101494.16;;;21.25;34.82
80699;BME280;70062;51.658;5.658;2024-03-08T03:20:33;101496.02;;;21.32;34.81
80699;BME280;70062;51.658;5.658;2024-03-08T03:23:03;101499.48;;;21.31;34.47
80699;BME280;70062;51.658;5.658;2024-03-08T03:25:29;101494.81;;;21.23;34.59
80699;BME280;70062;51.658;5.658;2024-03-08T03:28:00;101496.52;;;21.11;34.55
80699;BME280;70062;51.658;5.658;2024-03-08T03:30:26;101495.20;;;20.94;34.80
80699;BME280;70062;51.658;5.658;2024-03-08T03:32:52;101497.00;;;20.69;35.10
80699;BME280;70062;51.658;5.658;2024-03-08T03:35:20;101493.73;;;20.53;35.58
80699;BME280;70062;51.658;5.658;2024-03-08T03:37:47;101497.30;;;20.66;35.73
80699;BME280;70062;51.658;5.658;2024-03-08T03:40:32;101491.15;;;20.92;35.31
80699;BME280;70062;51.658;5.658;2024-03-08T03:42:58;101491.59;;;21.08;35.09
80699;BME280;70062;51.658;5.658;2024-03-08T03:45:24;101486.95;;;21.13;34.90
80699;BME280;70062;51.658;5.658;2024-03-08T03:47:51;101484.52;;;21.13;34.79
80699;BME280;70062;51.658;5.658;2024-03-08T03:50:18;101477.23;;;21.05;34.66
80699;BME280;70062;51.658;5.658;2024-03-08T03:52:48;101478.84;;;20.97;34.78
80699;BME280;70062;51.658;5.658;2024-03-08T03:55:18;101478.91;;;20.82;35.03
80699;BME280;70062;51.658;5.658;2024-03-08T03:57:45;101472.88;;;20.56;35.27
80699;BME280;70062;51.658;5.658;2024-03-08T04:00:11;101470.39;;;20.37;35.68
80699;BME280;70062;51.658;5.658;2024-03-08T04:02:38;101476.69;;;20.55;35.76
80699;BME280;70062;51.658;5.658;2024-03-08T04:05:05;101463.81;;;20.96;35.47
80699;BME280;70062;51.658;5.658;2024-03-08T04:07:32;101470.02;;;21.71;34.79
80699;BME280;70062;51.658;5.658;2024-03-08T04:09:58;101462.70;;;22.28;33.95
80699;BME280;70062;51.658;5.658;2024-03-08T04:12:24;101458.09;;;22.71;33.35
80699;BME280;70062;51.658;5.658;2024-03-08T04:14:50;101458.35;;;22.98;32.74
80699;BME280;70062;51.658;5.658;2024-03-08T04:17:16;101455.46;;;23.10;32.32
80699;BME280;70062;51.658;5.658;2024-03-08T04:19:43;101455.14;;;23.13;32.03
80699;BME280;70062;51.658;5.658;2024-03-08T04:22:09;101454.04;;;23.07;31.83
80699;BME280;70062;51.658;5.658;2024-03-08T04:24:36;101447.63;;;22.93;31.97
80699;BME280;70062;51.658;5.658;2024-03-08T04:27:03;101453.45;;;22.79;32.05
80699;BME280;70062;51.658;5.658;2024-03-08T04:29:30;101451.98;;;22.56;32.13
80699;BME280;70062;51.658;5.658;2024-03-08T04:31:57;101448.10;;;22.20;32.33
80699;BME280;70062;51.658;5.658;2024-03-08T04:34:24;101449.84;;;21.91;32.82
80699;BME280;70062;51.658;5.658;2024-03-08T04:36:51;101450.71;;;21.91;33.15
80699;BME280;70062;51.658;5.658;2024-03-08T04:39:18;101447.89;;;22.02;32.91
80699;BME280;70062;51.658;5.658;2024-03-08T04:41:44;101445.71;;;22.10;32.94
80699;BME280;70062;51.658;5.658;2024-03-08T04:44:11;101444.31;;;22.09;32.96
80699;BME280;70062;51.658;5.658;2024-03-08T04:46:38;101444.57;;;22.03;32.93
80699;BME280;70062;51.658;5.658;2024-03-08T04:49:04;101442.32;;;21.91;32.94
80699;BME280;70062;51.658;5.658;2024-03-08T04:51:30;101435.45;;;21.72;33.17
80699;BME280;70062;51.658;5.658;2024-03-08T04:53:55;101442.02;;;21.42;33.27
80699;BME280;70062;51.658;5.658;2024-03-08T04:56:22;101436.08;;;21.29;33.72
80699;BME280;70062;51.658;5.658;2024-03-08T04:58:48;101431.39;;;21.43;33.75
80699;BME280;70062;51.658;5.658;2024-03-08T05:01:14;101425.33;;;21.60;33.73
80699;BME280;70062;51.658;5.658;2024-03-08T05:03:40;101427.73;;;21.70;33.50
80699;BME280;70062;51.658;5.658;2024-03-08T05:06:06;101423.02;;;21.70;33.50
80699;BME280;70062;51.658;5.658;2024-03-08T05:08:32;101420.34;;;21.66;33.47
80699;BME280;70062;51.658;5.658;2024-03-08T05:10:58;101420.20;;;21.55;33.33
80699;BME280;70062;51.658;5.658;2024-03-08T05:13:26;101422.88;;;21.34;33.47
80699;BME280;70062;51.658;5.658;2024-03-08T05:15:52;101418.97;;;21.08;33.82
80699;BME280;70062;51.658;5.658;2024-03-08T05:18:17;101421.28;;;21.10;34.17
80699;BME280;70062;51.658;5.658;2024-03-08T05:20:43;101412.67;;;21.29;34.15
80699;BME280;70062;51.658;5.658;2024-03-08T05:23:08;101411.52;;;21.46;33.88
80699;BME280;70062;51.658;5.658;2024-03-08T05:25:34;101407.77;;;21.53;33.59
80699;BME280;70062;51.658;5.658;2024-03-08T05:28:00;101408.12;;;21.54;33.55
80699;BME280;70062;51.658;5.658;2024-03-08T05:30:25;101407.36;;;21.49;33.53
80699;BME280;70062;51.658;5.658;2024-03-08T05:32:50;101409.63;;;21.36;33.63
80699;BME280;70062;51.658;5.658;2024-03-08T05:35:16;101408.39;;;21.12;33.76
80699;BME280;70062;51.658;5.658;2024-03-08T05:37:42;101415.62;;;20.94;34.15
80699;BME280;70062;51.658;5.658;2024-03-08T05:40:08;101408.81;;;21.06;34.25
80699;BME280;70062;51.658;5.658;2024-03-08T05:42:36;101400.75;;;21.26;34.23
80699;BME280;70062;51.658;5.658;2024-03-08T05:45:05;101399.73;;;21.40;33.94
80699;BME280;70062;51.658;5.658;2024-03-08T05:47:36;101400.15;;;21.46;33.65
80699;BME280;70062;51.658;5.658;2024-03-08T05:50:01;101397.17;;;21.45;33.59
80699;BME280;70062;51.658;5.658;2024-03-08T05:52:27;101394.29;;;21.37;33.69
80699;BME280;70062;51.658;5.658;2024-03-08T05:54:53;101393.86;;;21.21;33.73
80699;BME280;70062;51.658;5.658;2024-03-08T05:57:18;101393.65;;;20.96;34.01
80699;BME280;70062;51.658;5.658;2024-03-08T05:59:44;101392.69;;;20.90;34.36
80699;BME280;70062;51.658;5.658;2024-03-08T06:02:10;101392.98;;;21.10;34.26
80699;BME280;70062;51.658;5.658;2024-03-08T06:04:35;101385.59;;;21.28;34.04
80699;BME280;70062;51.658;5.658;2024-03-08T06:07:01;101385.94;;;21.40;33.84
80699;BME280;70062;51.658;5.658;2024-03-08T06:09:28;101385.11;;;21.44;33.73
80699;BME280;70062;51.658;5.658;2024-03-08T06:11:54;101383.84;;;21.40;33.68
80699;BME280;70062;51.658;5.658;2024-03-08T06:14:20;101380.75;;;21.31;33.66
80699;BME280;70062;51.658;5.658;2024-03-08T06:16:46;101385.84;;;21.11;33.72
80699;BME280;70062;51.658;5.658;2024-03-08T06:19:12;101382.36;;;20.88;34.11
80699;BME280;70062;51.658;5.658;2024-03-08T06:21:38;101379.81;;;20.92;34.43
80699;BME280;70062;51.658;5.658;2024-03-08T06:24:04;101375.80;;;21.15;34.19
80699;BME280;70062;51.658;5.658;2024-03-08T06:26:32;101371.67;;;21.32;34.08
80699;BME280;70062;51.658;5.658;2024-03-08T06:29:03;101375.65;;;21.41;33.73
80699;BME280;70062;51.658;5.658;2024-03-08T06:31:32;101372.16;;;21.42;33.77
80699;BME280;70062;51.658;5.658;2024-03-08T06:33:57;101367.35;;;21.35;33.72
80699;BME280;70062;51.658;5.658;2024-03-08T06:36:23;101369.29;;;21.24;33.80
80699;BME280;70062;51.658;5.658;2024-03-08T06:38:49;101372.77;;;20.99;33.94
80699;BME280;70062;51.658;5.658;2024-03-08T06:41:15;101373.25;;;20.86;34.15
80699;BME280;70062;51.658;5.658;2024-03-08T06:43:43;101365.91;;;20.97;34.34
80699;BME280;70062;51.658;5.658;2024-03-08T06:46:10;101360.69;;;21.21;33.94
80699;BME280;70062;51.658;5.658;2024-03-08T06:48:39;101359.14;;;21.35;33.79
80699;BME280;70062;51.658;5.658;2024-03-08T06:51:05;101359.75;;;21.41;33.86
80699;BME280;70062;51.658;5.658;2024-03-08T06:53:32;101356.23;;;21.38;33.62
80699;BME280;70062;51.658;5.658;2024-03-08T06:55:58;101354.73;;;21.30;33.43
80699;BME280;70062;51.658;5.658;2024-03-08T06:58:25;101353.77;;;21.13;33.65
80699;BME280;70062;51.658;5.658;2024-03-08T07:00:51;101358.98;;;20.88;33.92
80699;BME280;70062;51.658;5.658;2024-03-08T07:03:19;101359.48;;;20.87;34.35
80699;BME280;70062;51.658;5.658;2024-03-08T07:05:47;101336.95;;;20.99;34.01
80699;BME280;70062;51.658;5.658;2024-03-08T07:08:16;101345.38;;;21.24;34.00
80699;BME280;70062;51.658;5.658;2024-03-08T07:10:46;101353.06;;;21.37;33.76
80699;BME280;70062;51.658;5.658;2024-03-08T07:13:14;101351.52;;;21.39;33.61
80699;BME280;70062;51.658;5.658;2024-03-08T07:15:40;101353.90;;;21.34;33.56
80699;BME280;70062;51.658;5.658;2024-03-08T07:18:06;101346.23;;;21.24;33.59
80699;BME280;70062;51.658;5.658;2024-03-08T07:20:34;101346.95;;;21.01;33.88
80699;BME280;70062;51.658;5.658;2024-03-08T07:23:00;101351.58;;;20.84;34.21
80699;BME280;70062;51.658;5.658;2024-03-08T07:25:25;101345.81;;;20.95;34.33
80699;BME280;70062;51.658;5.658;2024-03-08T07:27:55;101342.14;;;21.18;34.11
80699;BME280;70062;51.658;5.658;2024-03-08T07:30:22;101344.10;;;21.33;33.80
80699;BME280;70062;51.658;5.658;2024-03-08T07:33:06;101339.31;;;21.40;33.61
80699;BME280;70062;51.658;5.658;2024-03-08T07:35:35;101341.21;;;21.39;33.66
80699;BME280;70062;51.658;5.658;2024-03-08T07:38:07;101335.52;;;21.31;33.65
80699;BME280;70062;51.658;5.658;2024-03-08T07:40:38;101330.15;;;21.11;33.64
80699;BME280;70062;51.658;5.658;2024-03-08T07:43:08;101329.30;;;20.87;34.06
80699;BME280;70062;51.658;5.658;2024-03-08T07:45:33;101334.88;;;20.87;34.28
80699;BME280;70062;51.658;5.658;2024-03-08T07:47:59;101329.09;;;21.09;34.17
80699;BME280;70062;51.658;5.658;2024-03-08T07:50:25;101327.44;;;21.27;34.02
80699;BME280;70062;51.658;5.658;2024-03-08T07:52:50;101325.13;;;21.38;33.81
80699;BME280;70062;51.658;5.658;2024-03-08T07:55:16;101325.15;;;21.40;33.77
80699;BME280;70062;51.658;5.658;2024-03-08T07:57:41;101320.89;;;21.35;33.59
80699;BME280;70062;51.658;5.658;2024-03-08T08:00:08;101319.92;;;21.26;33.68
80699;BME280;70062;51.658;5.658;2024-03-08T08:02:35;101316.02;;;21.12;33.90
80699;BME280;70062;51.658;5.658;2024-03-08T08:05:04;101316.17;;;20.97;33.88
80699;BME280;70062;51.658;5.658;2024-03-08T08:07:33;101318.34;;;20.79;34.08
80699;BME280;70062;51.658;5.658;2024-03-08T08:09:59;101314.91;;;20.61;34.39
80699;BME280;70062;51.658;5.658;2024-03-08T08:12:24;101313.23;;;20.42;34.62
80699;BME280;70062;51.658;5.658;2024-03-08T08:14:50;101313.75;;;20.23;34.86
80699;BME280;70062;51.658;5.658;2024-03-08T08:17:15;101308.88;;;20.04;35.14
80699;BME280;70062;51.658;5.658;2024-03-08T08:19:41;101302.64;;;19.86;35.49
80699;BME280;70062;51.658;5.658;2024-03-08T08:22:06;101300.36;;;19.67;35.76
80699;BME280;70062;51.658;5.658;2024-03-08T08:24:34;101297.40;;;19.50;35.98
80699;BME280;70062;51.658;5.658;2024-03-08T08:26:59;101292.64;;;19.31;36.30
80699;BME280;70062;51.658;5.658;2024-03-08T08:29:25;101293.63;;;19.11;36.79
80699;BME280;70062;51.658;5.658;2024-03-08T08:31:51;101286.11;;;19.26;37.22
80699;BME280;70062;51.658;5.658;2024-03-08T08:34:16;101287.92;;;19.73;36.86
80699;BME280;70062;51.658;5.658;2024-03-08T08:36:44;101282.50;;;20.21;36.49
80699;BME280;70062;51.658;5.658;2024-03-08T08:39:11;101274.56;;;20.57;35.67
80699;BME280;70062;51.658;5.658;2024-03-08T08:41:41;101268.82;;;20.81;35.21
80699;BME280;70062;51.658;5.658;2024-03-08T08:44:10;101269.19;;;20.94;34.69
80699;BME280;70062;51.658;5.658;2024-03-08T08:46:40;101266.61;;;20.98;34.58
80699;BME280;70062;51.658;5.658;2024-03-08T08:49:05;101267.96;;;20.94;34.45
80699;BME280;70062;51.658;5.658;2024-03-08T08:51:36;101269.06;;;20.85;34.58
80699;BME280;70062;51.658;5.658;2024-03-08T08:54:02;101264.33;;;20.72;34.50
80699;BME280;70062;51.658;5.658;2024-03-08T08:56:27;101265.16;;;20.58;34.75
80699;BME280;70062;51.658;5.658;2024-03-08T08:58:54;101263.86;;;20.42;34.78
80699;BME280;70062;51.658;5.658;2024-03-08T09:01:20;101262.33;;;20.24;35.08
80699;BME280;70062;51.658;5.658;2024-03-08T09:03:45;101255.21;;;20.04;35.18
80699;BME280;70062;51.658;5.658;2024-03-08T09:06:15;101252.62;;;19.85;35.55
80699;BME280;70062;51.658;5.658;2024-03-08T09:08:42;101251.62;;;19.59;35.89
80699;BME280;70062;51.658;5.658;2024-03-08T09:11:09;101249.48;;;19.48;36.46
80699;BME280;70062;51.658;5.658;2024-03-08T09:13:35;101242.14;;;19.64;36.53
80699;BME280;70062;51.658;5.658;2024-03-08T09:16:02;101239.30;;;19.91;36.36
80699;BME280;70062;51.658;5.658;2024-03-08T09:18:28;101234.82;;;20.37;35.97
80699;BME280;70062;51.658;5.658;2024-03-08T09:20:54;101230.30;;;20.98;35.44
80699;BME280;70062;51.658;5.658;2024-03-08T09:23:20;101225.92;;;21.53;34.61
80699;BME280;70062;51.658;5.658;2024-03-08T09:25:45;101216.86;;;21.94;33.73
80699;BME280;70062;51.658;5.658;2024-03-08T09:28:12;101214.11;;;22.20;33.20
80699;BME280;70062;51.658;5.658;2024-03-08T09:30:38;101210.38;;;22.35;32.77
80699;BME280;70062;51.658;5.658;2024-03-08T09:33:05;101204.64;;;22.40;32.48
80699;BME280;70062;51.658;5.658;2024-03-08T09:35:31;101203.73;;;22.38;32.46
80699;BME280;70062;51.658;5.658;2024-03-08T09:37:56;101197.75;;;22.30;32.34
80699;BME280;70062;51.658;5.658;2024-03-08T09:40:22;101195.23;;;22.18;32.42
80699;BME280;70062;51.658;5.658;2024-03-08T09:42:49;101192.64;;;22.02;32.42
80699;BME280;70062;51.658;5.658;2024-03-08T09:45:16;101188.45;;;21.83;32.60
80699;BME280;70062;51.658;5.658;2024-03-08T09:47:43;101183.55;;;21.61;32.76
80699;BME280;70062;51.658;5.658;2024-03-08T09:50:09;101182.17;;;21.29;33.04
80699;BME280;70062;51.658;5.658;2024-03-08T09:52:38;101178.10;;;21.10;33.44
80699;BME280;70062;51.658;5.658;2024-03-08T09:55:05;101168.98;;;21.20;33.70
80699;BME280;70062;51.658;5.658;2024-03-08T09:57:37;101160.24;;;21.36;33.45
80699;BME280;70062;51.658;5.658;2024-03-08T10:00:07;101154.95;;;21.48;33.33
80699;BME280;70062;51.658;5.658;2024-03-08T10:02:49;101147.63;;;21.50;33.31
80699;BME280;70062;51.658;5.658;2024-03-08T10:05:20;101148.11;;;21.46;33.12
80699;BME280;70062;51.658;5.658;2024-03-08T10:07:51;101143.66;;;21.36;33.38
80699;BME280;70062;51.658;5.658;2024-03-08T10:10:21;101138.10;;;21.23;33.34
80699;BME280;70062;51.658;5.658;2024-03-08T10:12:48;101131.77;;;21.04;33.53
80699;BME280;70062;51.658;5.658;2024-03-08T10:15:15;101127.71;;;20.84;34.06
80699;BME280;70062;51.658;5.658;2024-03-08T10:17:42;101122.05;;;21.08;34.17
80699;BME280;70062;51.658;5.658;2024-03-08T10:20:18;101111.02;;;21.60;33.97
80699;BME280;70062;51.658;5.658;2024-03-08T10:22:44;101109.64;;;22.37;33.18
80699;BME280;70062;51.658;5.658;2024-03-08T10:25:11;101106.95;;;23.08;32.41
80699;BME280;70062;51.658;5.658;2024-03-08T10:27:40;101093.70;;;23.62;31.52
80699;BME280;70062;51.658;5.658;2024-03-08T10:30:12;101095.95;;;23.96;30.93
80699;BME280;70062;51.658;5.658;2024-03-08T10:32:39;101093.80;;;24.17;30.50
80699;BME280;70062;51.658;5.658;2024-03-08T10:35:07;101081.33;;;24.20;30.06
80699;BME280;70062;51.658;5.658;2024-03-08T10:37:39;101089.92;;;24.20;30.14
80699;BME280;70062;51.658;5.658;2024-03-08T10:40:10;101082.06;;;24.09;30.00
80699;BME280;70062;51.658;5.658;2024-03-08T10:42:51;101078.77;;;23.92;30.13
80699;BME280;70062;51.658;5.658;2024-03-08T10:45:31;101080.92;;;23.72;30.11
80699;BME280;70062;51.658;5.658;2024-03-08T10:50:49;101078.26;;;23.18;30.49
80699;BME280;70062;51.658;5.658;2024-03-08T10:53:17;101073.14;;;22.92;30.96
80699;BME280;70062;51.658;5.658;2024-03-08T10:55:44;101074.79;;;22.66;31.04
80699;BME280;70062;51.658;5.658;2024-03-08T10:58:10;101068.19;;;22.38;31.34
80699;BME280;70062;51.658;5.658;2024-03-08T11:00:36;101064.92;;;22.13;31.74
80699;BME280;70062;51.658;5.658;2024-03-08T11:03:03;101058.10;;;21.86;32.03
80699;BME280;70062;51.658;5.658;2024-03-08T11:05:38;101054.72;;;21.52;32.35
80699;BME280;70062;51.658;5.658;2024-03-08T11:08:20;101052.14;;;21.19;33.03
80699;BME280;70062;51.658;5.658;2024-03-08T11:10:49;101049.04;;;21.21;33.42
80699;BME280;70062;51.658;5.658;2024-03-08T11:15:59;101035.91;;;22.20;32.89
80699;BME280;70062;51.658;5.658;2024-03-08T11:18:26;101030.71;;;22.71;32.23
80699;BME280;70062;51.658;5.658;2024-03-08T11:20:54;101025.19;;;23.07;31.71
80699;BME280;70062;51.658;5.658;2024-03-08T11:23:22;101017.14;;;23.28;31.22
80699;BME280;70062;51.658;5.658;2024-03-08T11:25:48;101012.23;;;23.39;30.92
80699;BME280;70062;51.658;5.658;2024-03-08T11:28:20;101006.27;;;23.40;30.83
80699;BME280;70062;51.658;5.658;2024-03-08T11:33:30;100997.70;;;23.22;30.94
80699;BME280;70062;51.658;5.658;2024-03-08T11:36:20;100995.77;;;23.09;30.94
80699;BME280;70062;51.658;5.658;2024-03-08T11:38:48;100990.52;;;22.89;31.04
80699;BME280;70062;51.658;5.658;2024-03-08T11:41:20;100984.85;;;22.69;31.43
80699;BME280;70062;51.658;5.658;2024-03-08T11:44:02;100988.78;;;22.41;31.53
80699;BME280;70062;51.658;5.658;2024-03-08T11:46:34;100984.15;;;22.12;32.30
80699;BME280;70062;51.658;5.658;2024-03-08T11:49:19;100985.43;;;22.33;32.47
80699;BME280;70062;51.658;5.658;2024-03-08T11:51:45;100984.86;;;22.69;32.26
80699;BME280;70062;51.658;5.658;2024-03-08T11:54:12;100975.63;;;22.97;31.82
80699;BME280;70062;51.658;5.658;2024-03-08T11:56:44;100972.48;;;23.16;31.66
80699;BME280;70062;51.658;5.658;2024-03-08T11:59:15;100960.61;;;23.24;31.41
80699;BME280;70062;51.658;5.658;2024-03-08T12:01:43;100961.70;;;23.22;31.38
80699;BME280;70062;51.658;5.658;2024-03-08T12:04:12;100954.97;;;23.15;31.23
80699;BME280;70062;51.658;5.658;2024-03-08T12:06:40;100956.55;;;23.00;31.33
80699;BME280;70062;51.658;5.658;2024-03-08T12:09:11;100953.02;;;22.74;31.42
80699;BME280;70062;51.658;5.658;2024-03-08T12:11:38;100952.92;;;22.41;31.71
80699;BME280;70062;51.658;5.658;2024-03-08T12:14:04;100946.08;;;22.31;32.06
80699;BME280;70062;51.658;5.658;2024-03-08T12:16:31;100942.77;;;22.38;32.09
80699;BME280;70062;51.658;5.658;2024-03-08T12:18:57;100940.70;;;22.47;32.06
80699;BME280;70062;51.658;5.658;2024-03-08T12:21:25;100934.23;;;22.51;32.11
80699;BME280;70062;51.658;5.658;2024-03-08T12:24:08;100931.42;;;22.48;32.04
80699;BME280;70062;51.658;5.658;2024-03-08T12:26:36;100928.43;;;22.37;31.96
80699;BME280;70062;51.658;5.658;2024-03-08T12:29:25;100926.13;;;22.25;31.87
80699;BME280;70062;51.658;5.658;2024-03-08T12:31:55;100926.77;;;22.06;32.30
80699;BME280;70062;51.658;5.658;2024-03-08T12:34:24;100924.39;;;21.83;32.39
80699;BME280;70062;51.658;5.658;2024-03-08T12:36:51;100918.84;;;21.55;32.76
80699;BME280;70062;51.658;5.658;2024-03-08T12:39:21;100914.81;;;21.53;32.91
80699;BME280;70062;51.658;5.658;2024-03-08T12:41:53;100914.20;;;21.69;32.81
80699;BME280;70062;51.658;5.658;2024-03-08T12:44:20;100909.17;;;21.81;32.80
80699;BME280;70062;51.658;5.658;2024-03-08T12:46:48;100901.50;;;21.85;32.52
80699;BME280;70062;51.658;5.658;2024-03-08T12:49:14;100898.35;;;21.84;32.44
80699;BME280;70062;51.658;5.658;2024-03-08T12:51:46;100895.18;;;21.78;32.47
80699;BME280;70062;51.658;5.658;2024-03-08T12:54:12;100889.20;;;21.69;32.64
80699;BME280;70062;51.658;5.658;2024-03-08T12:56:37;100885.84;;;21.58;32.64
80699;BME280;70062;51.658;5.658;2024-03-08T12:59:04;100878.77;;;21.38;32.76
80699;BME280;70062;51.658;5.658;2024-03-08T13:01:31;100873.42;;;21.23;33.13